Time;durP1;ratioP1;P1;durP2;ratioP2;P2;SDS_P1;SDS_P2;PMS_P1;PMS_P2;Temp;Humidity;BMP_temperature;BMP_pressure;BME280_temperature;BME280_humidity;BME280_pressure;Samples;Min_cycle;Max_cycle;Signal;HPM_P1;HPM_P2
2023/05/23 00:01:44;;;;;;;15.77;14.17;;;;;;;17.26;100.00;100551.47;5056401;28;20222;-82
2023/05/23 00:04:15;;;;;;;15.20;13.80;;;;;;;17.22;100.00;100558.13;5048446;28;20720;-82
2023/05/23 00:06:45;;;;;;;17.50;14.33;;;;;;;17.16;100.00;100564.94;5046081;28;20291;-82
2023/05/23 00:09:18;;;;;;;17.50;14.47;;;;;;;17.12;100.00;100562.69;5046289;28;20310;-82
2023/05/23 00:11:44;;;;;;;16.60;14.90;;;;;;;17.07;100.00;100565.78;5049571;28;20285;-82
2023/05/23 00:14:12;;;;;;;15.20;13.70;;;;;;;17.04;100.00;100563.38;5051112;28;20206;-81
2023/05/23 00:16:40;;;;;;;18.10;14.37;;;;;;;17.01;100.00;100566.38;5050147;28;20221;-82
2023/05/23 00:19:07;;;;;;;16.63;14.43;;;;;;;16.99;100.00;100571.03;5047481;28;20212;-82
2023/05/23 00:21:33;;;;;;;18.13;15.10;;;;;;;16.95;100.00;100569.59;5046426;28;20234;-82
2023/05/23 00:24:03;;;;;;;16.53;14.33;;;;;;;16.92;100.00;100564.50;5041999;28;20205;-82
2023/05/23 00:26:30;;;;;;;17.47;14.90;;;;;;;16.89;100.00;100564.78;5046244;28;20278;-82
2023/05/23 00:28:57;;;;;;;17.10;15.00;;;;;;;16.86;100.00;100571.28;5048830;28;20213;-81
2023/05/23 00:31:24;;;;;;;17.03;15.10;;;;;;;16.84;100.00;100569.75;5038639;28;20733;-82
2023/05/23 00:33:50;;;;;;;16.87;15.10;;;;;;;16.82;100.00;100569.03;5043787;28;20235;-82
2023/05/23 00:36:17;;;;;;;17.27;15.47;;;;;;;16.80;100.00;100571.00;5052363;28;20217;-82
2023/05/23 00:38:44;;;;;;;17.50;15.70;;;;;;;16.80;100.00;100574.53;5045571;28;20266;-82
2023/05/23 00:41:12;;;;;;;17.70;15.93;;;;;;;16.80;100.00;100571.00;5050720;28;20228;-82
2023/05/23 00:43:39;;;;;;;19.37;15.67;;;;;;;16.81;100.00;100572.69;5051286;28;20208;-82
2023/05/23 00:46:05;;;;;;;17.43;15.73;;;;;;;16.81;100.00;100570.88;5044904;28;20212;-81
2023/05/23 00:48:32;;;;;;;18.27;15.57;;;;;;;16.82;100.00;100583.31;5041520;28;20223;-82
2023/05/23 00:50:59;;;;;;;17.77;15.53;;;;;;;16.82;100.00;100571.72;5047878;28;20196;-82
2023/05/23 00:53:25;;;;;;;15.10;13.60;;;;;;;16.81;100.00;100570.00;5048411;28;20197;-82
2023/05/23 00:55:52;;;;;;;17.77;15.70;;;;;;;16.78;100.00;100568.44;5040986;28;20211;-81
2023/05/23 00:58:20;;;;;;;19.67;15.57;;;;;;;16.77;100.00;100569.44;5048534;28;20585;-82
2023/05/23 01:00:49;;;;;;;16.83;15.07;;;;;;;16.75;100.00;100571.41;5040519;28;20228;-82
2023/05/23 01:03:16;;;;;;;18.73;16.40;;;;;;;16.75;100.00;100574.09;5048163;28;20207;-82
2023/05/23 01:05:43;;;;;;;18.40;16.13;;;;;;;16.74;100.00;100575.09;5045096;28;20217;-82
2023/05/23 01:08:10;;;;;;;21.07;17.47;;;;;;;16.73;100.00;100565.31;5050905;28;20230;-82
2023/05/23 01:10:37;;;;;;;22.27;18.73;;;;;;;16.72;100.00;100570.81;5048860;28;20201;-81
2023/05/23 01:13:13;;;;;;;26.63;19.73;;;;;;;16.73;100.00;100567.16;5051723;28;20581;-82
2023/05/23 01:15:47;;;;;;;27.43;21.70;;;;;;;16.72;100.00;100574.38;5048820;28;20598;-81
2023/05/23 01:18:18;;;;;;;28.23;21.77;;;;;;;16.73;100.00;100567.16;5046313;28;20811;-82
2023/05/23 01:20:49;;;;;;;31.50;21.90;;;;;;;16.75;100.00;100565.19;5048013;28;20233;-82
2023/05/23 01:23:54;;;;;;;31.47;23.30;;;;;;;16.75;100.00;100567.88;5053186;28;20209;-82
2023/05/23 01:26:33;;;;;;;34.80;24.97;;;;;;;16.75;100.00;100573.25;5020786;28;20226;-82
2023/05/23 01:29:09;;;;;;;40.57;30.30;;;;;;;16.73;100.00;100568.00;5050134;28;20216;-82
2023/05/23 01:31:37;;;;;;;52.90;36.77;;;;;;;16.69;100.00;100573.78;5052670;28;20228;-82
2023/05/23 01:34:05;;;;;;;52.17;37.07;;;;;;;16.63;100.00;100576.06;5051771;28;20202;-82
2023/05/23 01:36:34;;;;;;;54.40;36.97;;;;;;;16.53;100.00;100585.88;5049591;28;20227;-82
2023/05/23 01:39:00;;;;;;;49.70;36.50;;;;;;;16.43;100.00;100586.84;5050438;28;20209;-82
2023/05/23 01:41:28;;;;;;;52.63;36.40;;;;;;;16.39;100.00;100590.78;5054428;28;20224;-83
2023/05/23 01:43:55;;;;;;;47.17;34.93;;;;;;;16.35;100.00;100597.41;5048600;28;20246;-82
2023/05/23 01:46:23;;;;;;;46.63;34.33;;;;;;;16.30;100.00;100592.47;5048825;28;20688;-82
2023/05/23 01:48:50;;;;;;;50.17;35.87;;;;;;;16.25;100.00;100592.88;5050673;28;20210;-82
2023/05/23 01:51:17;;;;;;;48.60;33.60;;;;;;;16.19;100.00;100596.09;5049255;28;20209;-82
2023/05/23 01:53:44;;;;;;;44.17;33.10;;;;;;;16.19;100.00;100592.53;5046136;28;20219;-83
2023/05/23 01:56:11;;;;;;;41.73;32.33;;;;;;;16.12;100.00;100594.91;5047437;28;20664;-82
2023/05/23 01:58:37;;;;;;;40.53;30.10;;;;;;;16.09;100.00;100602.41;5051889;28;20204;-82
2023/05/23 02:01:04;;;;;;;39.33;29.97;;;;;;;16.05;100.00;100603.66;5048825;28;20232;-82
2023/05/23 02:03:32;;;;;;;37.53;29.10;;;;;;;16.00;100.00;100600.50;5050421;28;20777;-82
2023/05/23 02:05:58;;;;;;;37.77;26.87;;;;;;;15.92;100.00;100601.19;5056660;28;20210;-82
2023/05/23 02:08:25;;;;;;;37.20;27.67;;;;;;;15.85;100.00;100610.75;5052466;28;20232;-82
2023/05/23 02:10:51;;;;;;;36.57;27.67;;;;;;;15.78;100.00;100599.66;5052942;28;20202;-81
2023/05/23 02:13:18;;;;;;;35.63;25.90;;;;;;;15.75;100.00;100610.69;5051775;28;20216;-83
2023/05/23 02:15:44;;;;;;;32.20;23.73;;;;;;;15.72;100.00;100616.31;5047084;28;20206;-83
2023/05/23 02:18:11;;;;;;;26.53;19.53;;;;;;;15.67;100.00;100612.31;5049458;28;20226;-83
2023/05/23 02:20:39;;;;;;;21.70;18.27;;;;;;;15.57;100.00;100609.56;5051483;28;20235;-82
2023/05/23 02:23:06;;;;;;;19.23;16.83;;;;;;;15.52;100.00;100617.13;5053405;28;20209;-82
2023/05/23 02:25:32;;;;;;;18.60;16.57;;;;;;;15.43;100.00;100621.41;5049201;28;20206;-83
2023/05/23 02:27:59;;;;;;;19.00;14.67;;;;;;;15.38;100.00;100630.84;5052363;28;20222;-83
2023/05/23 02:30:25;;;;;;;18.47;15.17;;;;;;;15.35;100.00;100634.66;5048537;28;20274;-83
2023/05/23 02:32:52;;;;;;;16.80;14.07;;;;;;;15.32;100.00;100634.03;5048865;28;20231;-83
2023/05/23 02:35:18;;;;;;;19.13;14.40;;;;;;;15.28;100.00;100631.63;5049910;28;20210;-83
2023/05/23 02:37:46;;;;;;;16.13;13.37;;;;;;;15.24;100.00;100630.16;5041641;28;20231;-83
2023/05/23 02:40:12;;;;;;;15.47;13.73;;;;;;;15.21;100.00;100633.13;5046793;28;20210;-83
2023/05/23 02:42:39;;;;;;;15.67;13.70;;;;;;;15.20;100.00;100636.78;5051044;28;20227;-83
2023/05/23 02:45:07;;;;;;;15.30;13.80;;;;;;;15.18;100.00;100633.38;5044517;28;20236;-83
2023/05/23 02:47:33;;;;;;;13.83;12.43;;;;;;;15.19;100.00;100640.44;5050656;28;20226;-83
2023/05/23 02:50:00;;;;;;;14.00;12.57;;;;;;;15.17;100.00;100642.41;5051934;28;20217;-83
2023/05/23 02:52:26;;;;;;;15.67;13.30;;;;;;;15.16;100.00;100645.19;5050133;28;20205;-82
2023/05/23 02:54:54;;;;;;;16.00;13.67;;;;;;;15.14;100.00;100639.97;5041157;28;20199;-82
2023/05/23 02:57:20;;;;;;;15.13;13.53;;;;;;;15.12;100.00;100638.38;5045701;28;20233;-83
2023/05/23 02:59:47;;;;;;;14.30;12.77;;;;;;;15.12;100.00;100635.69;5046694;28;20687;-82
2023/05/23 03:02:13;;;;;;;14.83;13.00;;;;;;;15.11;100.00;100645.56;5051383;28;20265;-82
2023/05/23 03:04:40;;;;;;;15.80;12.90;;;;;;;15.10;100.00;100643.88;5049572;28;21841;-82
2023/05/23 03:07:06;;;;;;;15.97;13.43;;;;;;;15.08;100.00;100645.81;5049929;28;20234;-83
2023/05/23 03:09:34;;;;;;;14.03;12.57;;;;;;;15.07;100.00;100641.44;5049955;28;20214;-82
2023/05/23 03:12:01;;;;;;;13.40;12.00;;;;;;;15.06;99.83;100639.72;5049954;28;20197;-84
2023/05/23 03:14:28;;;;;;;16.37;13.60;;;;;;;15.04;100.00;100640.84;5051898;28;20700;-83
2023/05/23 03:16:54;;;;;;;14.20;12.70;;;;;;;15.04;99.71;100640.84;5052172;28;20230;-84
2023/05/23 03:19:21;;;;;;;16.23;12.67;;;;;;;15.02;99.45;100634.75;5050095;28;20535;-84
2023/05/23 03:21:49;;;;;;;15.53;13.00;;;;;;;14.99;99.26;100643.91;5056517;28;20244;-83
2023/05/23 03:24:16;;;;;;;16.30;13.03;;;;;;;14.96;99.48;100637.94;5047928;28;20585;-83
2023/05/23 03:26:42;;;;;;;17.57;14.03;;;;;;;14.94;99.17;100635.38;5046923;28;20232;-83
2023/05/23 03:29:10;;;;;;;15.10;13.50;;;;;;;14.91;99.32;100635.63;5042798;28;20195;-83
2023/05/23 03:31:37;;;;;;;15.77;13.47;;;;;;;14.89;99.12;100642.94;5050659;28;20618;-83
2023/05/23 03:34:04;;;;;;;15.77;14.07;;;;;;;14.89;99.10;100632.22;5049756;28;20198;-83
2023/05/23 03:36:32;;;;;;;16.77;13.27;;;;;;;14.87;99.55;100643.06;5049108;28;20248;-83
2023/05/23 03:38:58;;;;;;;16.63;13.40;;;;;;;14.85;99.41;100639.69;5044348;28;20210;-83
2023/05/23 03:41:25;;;;;;;15.80;13.37;;;;;;;14.85;99.29;100637.00;5047374;28;20229;-82
2023/05/23 03:43:51;;;;;;;18.37;14.00;;;;;;;14.83;99.60;100633.59;5046711;28;20213;-82
2023/05/23 03:46:19;;;;;;;17.87;13.70;;;;;;;14.83;99.26;100640.78;5043600;28;20209;-82
2023/05/23 03:48:45;;;;;;;16.37;13.17;;;;;;;14.82;99.24;100636.38;5045496;28;20198;-82
2023/05/23 03:51:13;;;;;;;18.77;14.07;;;;;;;14.82;99.45;100636.38;5039877;28;20213;-82
2023/05/23 03:53:39;;;;;;;17.87;14.13;;;;;;;14.81;99.41;100630.16;5044568;28;20247;-82
2023/05/23 03:56:06;;;;;;;18.40;14.03;;;;;;;14.81;99.47;100634.69;5045399;28;20216;-83
2023/05/23 03:58:32;;;;;;;16.03;13.57;;;;;;;14.81;99.67;100634.69;5050120;28;20225;-83
2023/05/23 04:01:00;;;;;;;15.33;13.70;;;;;;;14.79;99.43;100636.63;5046559;28;20266;-84
2023/05/23 04:03:31;;;;;;;18.33;14.73;;;;;;;14.79;100.00;100642.00;5046943;28;20557;-81
2023/05/23 04:05:58;;;;;;;16.87;14.63;;;;;;;14.77;100.00;100643.94;5050779;28;20293;-81
2023/05/23 04:08:24;;;;;;;14.90;12.87;;;;;;;14.77;100.00;100643.94;5045869;28;20229;-83
2023/05/23 04:10:51;;;;;;;16.50;14.60;;;;;;;14.78;100.00;100643.81;5044634;28;20210;-83
2023/05/23 04:13:17;;;;;;;16.97;13.27;;;;;;;14.77;100.00;100650.16;5051439;28;20579;-83
2023/05/23 04:15:44;;;;;;;14.47;12.83;;;;;;;14.75;100.00;100644.06;5050929;28;20216;-81
2023/05/23 04:18:11;;;;;;;15.53;13.10;;;;;;;14.74;100.00;100653.06;5048512;28;20234;-81
2023/05/23 04:20:38;;;;;;;10.73;9.63;;;;;;;14.73;100.00;100647.84;5049457;28;20213;-82
2023/05/23 04:23:05;;;;;;;10.33;9.23;;;;;;;14.69;100.00;100652.59;5044935;28;20225;-82
2023/05/23 04:25:33;;;;;;;11.37;9.13;;;;;;;14.66;100.00;100652.00;5040668;28;20193;-81
2023/05/23 04:27:59;;;;;;;9.53;8.27;;;;;;;14.64;100.00;100648.59;5052423;28;20218;-81
2023/05/23 04:30:29;;;;;;;13.13;9.30;;;;;;;14.62;100.00;100640.66;5042205;28;20337;-81
2023/05/23 04:32:57;;;;;;;11.03;9.30;;;;;;;14.61;100.00;100648.84;5049693;28;20250;-81
2023/05/23 04:35:23;;;;;;;11.00;9.00;;;;;;;14.59;100.00;100641.75;5044722;28;20209;-81
2023/05/23 04:37:55;;;;;;;12.40;9.77;;;;;;;14.62;100.00;100642.50;5045814;28;20232;-81
2023/05/23 04:40:22;;;;;;;12.43;11.13;;;;;;;14.63;100.00;100637.00;5042101;28;20208;-81
2023/05/23 04:42:48;;;;;;;14.37;12.87;;;;;;;14.64;100.00;100644.09;5047227;28;20217;-82
2023/05/23 04:45:15;;;;;;;15.87;13.00;;;;;;;14.66;100.00;100639.47;5052300;28;20198;-81
2023/05/23 04:47:43;;;;;;;15.87;13.43;;;;;;;14.68;100.00;100645.56;5050080;28;20356;-82
2023/05/23 04:50:10;;;;;;;12.47;11.13;;;;;;;14.70;100.00;100648.06;5051417;28;20220;-82
2023/05/23 04:52:37;;;;;;;13.87;11.30;;;;;;;14.69;100.00;100633.00;5058905;28;20214;-82
2023/05/23 04:55:05;;;;;;;14.10;11.50;;;;;;;14.70;100.00;100645.41;5041936;28;20214;-81
2023/05/23 04:57:32;;;;;;;12.23;10.90;;;;;;;14.69;100.00;100641.88;5045085;28;20222;-81
2023/05/23 04:59:59;;;;;;;11.70;10.50;;;;;;;14.71;100.00;100645.28;5054121;28;20204;-81
2023/05/23 05:02:26;;;;;;;9.63;8.60;;;;;;;14.72;100.00;100640.78;5056563;28;20416;-80
2023/05/23 05:04:53;;;;;;;8.97;7.70;;;;;;;14.74;100.00;100654.91;5044556;28;20229;-82
2023/05/23 05:07:19;;;;;;;8.47;7.57;;;;;;;14.75;100.00;100651.25;5044249;28;20259;-81
2023/05/23 05:09:46;;;;;;;10.97;8.10;;;;;;;14.73;100.00;100645.16;5043019;28;20211;-81
2023/05/23 05:12:14;;;;;;;9.53;7.07;;;;;;;14.72;100.00;100643.44;5048171;28;20210;-81
2023/05/23 05:14:40;;;;;;;8.80;7.60;;;;;;;14.71;100.00;100645.28;5045899;28;20206;-81
2023/05/23 05:17:06;;;;;;;10.27;7.80;;;;;;;14.71;100.00;100649.78;5039716;28;20229;-81
2023/05/23 05:19:33;;;;;;;10.70;8.70;;;;;;;14.70;100.00;100650.75;5044308;28;20288;-81
2023/05/23 05:22:00;;;;;;;8.90;8.00;;;;;;;14.68;100.00;100656.28;5052499;28;20225;-81
2023/05/23 05:24:26;;;;;;;9.67;8.17;;;;;;;14.67;100.00;100648.34;5049348;28;21634;-82
2023/05/23 05:26:54;;;;;;;9.70;8.27;;;;;;;14.65;100.00;100655.66;5049104;28;20226;-82
2023/05/23 05:29:22;;;;;;;10.30;9.03;;;;;;;14.64;100.00;100653.94;5050355;28;20201;-82
2023/05/23 05:31:48;;;;;;;12.93;8.60;;;;;;;14.63;100.00;100657.59;5044579;28;20213;-82
2023/05/23 05:34:15;;;;;;;8.83;7.60;;;;;;;14.58;100.00;100653.47;5054941;28;20205;-82
2023/05/23 05:36:45;;;;;;;9.07;7.60;;;;;;;14.57;100.00;100654.44;5047215;28;20241;-82
2023/05/23 05:39:12;;;;;;;8.93;8.03;;;;;;;14.55;100.00;100651.00;5053408;28;20206;-82
2023/05/23 05:41:39;;;;;;;10.73;8.27;;;;;;;14.56;100.00;100649.19;5052328;28;20690;-82
2023/05/23 05:44:05;;;;;;;9.73;8.73;;;;;;;14.55;100.00;100653.69;5042478;28;20256;-82
2023/05/23 05:46:33;;;;;;;9.97;8.20;;;;;;;14.55;100.00;100652.84;5047490;28;20209;-82
2023/05/23 05:49:00;;;;;;;10.93;8.80;;;;;;;14.56;100.00;100652.72;5046268;28;20206;-82
2023/05/23 05:51:26;;;;;;;10.70;8.90;;;;;;;14.57;100.00;100657.13;5049982;28;20217;-82
2023/05/23 05:53:53;;;;;;;11.20;8.67;;;;;;;14.55;100.00;100661.75;5049168;28;20682;-82
2023/05/23 05:56:21;;;;;;;8.93;8.00;;;;;;;14.56;100.00;100662.59;5050796;28;20213;-82
2023/05/23 05:58:47;;;;;;;9.43;8.17;;;;;;;14.56;100.00;100665.28;5048590;28;20221;-82
2023/05/23 06:01:14;;;;;;;13.03;8.87;;;;;;;14.55;100.00;100656.38;5054271;28;20221;-82
2023/05/23 06:03:42;;;;;;;11.50;8.43;;;;;;;14.54;100.00;100660.03;5045884;28;20229;-82
2023/05/23 06:06:09;;;;;;;10.53;8.43;;;;;;;14.55;100.00;100660.88;5052521;28;20285;-82
2023/05/23 06:08:35;;;;;;;8.77;7.80;;;;;;;14.57;100.00;100664.31;5045815;28;20278;-82
2023/05/23 06:11:01;;;;;;;8.80;7.70;;;;;;;14.55;100.00;100661.75;5048299;28;20210;-82
2023/05/23 06:13:28;;;;;;;9.00;7.20;;;;;;;14.55;100.00;100658.22;5049972;28;20206;-82
2023/05/23 06:15:55;;;;;;;7.47;6.67;;;;;;;14.55;100.00;100661.75;5048858;28;20207;-82
2023/05/23 06:18:21;;;;;;;9.07;6.93;;;;;;;14.56;100.00;100659.91;5052480;28;20234;-82
2023/05/23 06:20:49;;;;;;;7.47;6.77;;;;;;;14.56;100.00;100660.75;5046690;28;20592;-81
2023/05/23 06:23:16;;;;;;;8.13;6.47;;;;;;;14.55;100.00;100652.84;5050588;28;20232;-82
2023/05/23 06:25:42;;;;;;;7.47;6.77;;;;;;;14.54;100.00;100662.72;5048538;28;20661;-82
2023/05/23 06:28:09;;;;;;;9.27;7.10;;;;;;;14.52;100.00;100659.28;5048447;28;20437;-81
2023/05/23 06:30:37;;;;;;;6.80;6.17;;;;;;;14.50;100.00;100653.22;5056581;28;20277;-81
2023/05/23 06:33:03;;;;;;;6.60;6.00;;;;;;;14.48;100.00;100660.53;5045150;28;20253;-82
2023/05/23 06:35:30;;;;;;;7.90;7.10;;;;;;;14.48;100.00;100665.91;5047514;28;20253;-81
2023/05/23 06:37:58;;;;;;;7.10;6.40;;;;;;;14.48;100.00;100670.41;5050619;28;20228;-82
2023/05/23 06:40:24;;;;;;;8.03;6.87;;;;;;;14.45;100.00;100668.81;5049788;28;20213;-81
2023/05/23 06:42:51;;;;;;;8.03;6.40;;;;;;;14.43;100.00;100673.44;5050003;28;20248;-82
2023/05/23 06:45:17;;;;;;;7.10;6.40;;;;;;;14.43;100.00;100665.41;5043066;28;20213;-82
2023/05/23 06:47:44;;;;;;;7.63;6.83;;;;;;;14.43;100.00;100665.41;5045680;28;20224;-82
2023/05/23 06:50:11;;;;;;;7.70;7.00;;;;;;;14.43;100.00;100669.91;5050174;28;20210;-83
2023/05/23 06:52:37;;;;;;;7.43;6.67;;;;;;;14.42;100.00;100674.41;5054968;28;20205;-81
2023/05/23 06:55:06;;;;;;;7.80;6.80;;;;;;;14.41;100.00;100678.06;5055152;28;20216;-82
2023/05/23 06:57:33;;;;;;;7.60;6.87;;;;;;;14.42;100.00;100669.06;5050990;28;20269;-82
2023/05/23 06:59:59;;;;;;;7.20;6.47;;;;;;;14.43;100.00;100677.94;5056214;28;20209;-82
2023/05/23 07:02:26;;;;;;;7.70;7.00;;;;;;;14.41;100.00;100688.78;5050668;28;20221;-82
2023/05/23 07:04:52;;;;;;;10.87;7.70;;;;;;;14.42;100.00;100689.63;5051490;28;20577;-82
2023/05/23 07:07:19;;;;;;;7.90;7.10;;;;;;;14.42;100.00;100687.81;5049240;28;20816;-82
2023/05/23 07:09:45;;;;;;;7.57;6.73;;;;;;;14.42;100.00;100692.31;5049033;28;20557;-83
2023/05/23 07:12:13;;;;;;;7.03;6.33;;;;;;;14.41;100.00;100688.78;5050444;28;20201;-83
2023/05/23 07:14:40;;;;;;;7.60;6.80;;;;;;;14.40;100.00;100695.13;5050322;28;20209;-82
2023/05/23 07:17:06;;;;;;;7.77;6.53;;;;;;;14.37;100.00;100697.13;5049250;28;20235;-82
2023/05/23 07:19:33;;;;;;;8.07;7.20;;;;;;;14.29;100.00;100686.19;5055850;28;20196;-81
2023/05/23 07:21:59;;;;;;;9.33;8.27;;;;;;;14.22;100.00;100697.38;5054267;28;20218;-82
2023/05/23 07:24:25;;;;;;;9.13;8.23;;;;;;;14.19;100.00;100694.94;5047822;28;20205;-81
2023/05/23 07:26:52;;;;;;;8.93;8.03;;;;;;;14.16;100.00;100699.66;5053060;28;20233;-81
2023/05/23 07:29:20;;;;;;;8.63;7.83;;;;;;;14.11;100.00;100691.16;5050706;28;20213;-81
2023/05/23 07:31:46;;;;;;;9.10;8.07;;;;;;;14.08;100.00;100696.75;5052448;28;20209;-81
2023/05/23 07:34:13;;;;;;;9.30;8.50;;;;;;;14.06;100.00;100707.56;5048896;28;20214;-82
2023/05/23 07:36:39;;;;;;;9.40;8.03;;;;;;;14.08;100.00;100704.78;5051064;28;20225;-81
2023/05/23 07:39:06;;;;;;;9.10;8.13;;;;;;;14.07;100.00;100709.28;5055052;28;20205;-82
2023/05/23 07:41:32;;;;;;;9.00;7.67;;;;;;;14.07;100.00;100703.06;5047719;28;20209;-82
2023/05/23 07:43:59;;;;;;;10.23;7.83;;;;;;;14.02;100.00;100708.75;5048914;28;20232;-81
2023/05/23 07:46:27;;;;;;;8.20;7.30;;;;;;;13.99;100.00;100706.31;5048040;28;20663;-82
2023/05/23 07:48:53;;;;;;;11.20;8.00;;;;;;;13.97;100.00;100713.66;5048592;28;20615;-82
2023/05/23 07:51:20;;;;;;;12.30;8.77;;;;;;;13.96;100.00;100716.44;5049867;28;20209;-82
2023/05/23 07:53:47;;;;;;;9.63;8.20;;;;;;;13.94;100.00;100713.03;5051430;28;20220;-81
2023/05/23 07:56:13;;;;;;;8.60;7.40;;;;;;;13.92;100.00;100718.50;5047100;28;21406;-82
2023/05/23 07:58:40;;;;;;;11.13;7.47;;;;;;;13.90;100.00;100712.41;5053822;28;20287;-83
2023/05/23 08:01:06;;;;;;;8.00;7.10;;;;;;;13.94;100.00;100723.72;5051795;28;20692;-82
2023/05/23 08:03:34;;;;;;;7.30;6.53;;;;;;;13.91;100.00;100727.50;5058014;28;20631;-82
2023/05/23 08:06:01;;;;;;;7.33;6.37;;;;;;;13.88;100.00;100722.34;5046972;28;20209;-82
2023/05/23 08:08:27;;;;;;;7.30;6.60;;;;;;;13.87;100.00;100736.72;5051338;28;20226;-82
2023/05/23 08:10:54;;;;;;;6.23;5.63;;;;;;;13.85;100.00;100728.78;5051155;28;20205;-81
2023/05/23 08:13:20;;;;;;;6.17;5.50;;;;;;;13.86;100.00;100735.00;5054426;28;20645;-81
2023/05/23 08:15:47;;;;;;;5.77;5.27;;;;;;;13.83;100.00;100736.09;5051384;28;20201;-81
2023/05/23 08:18:13;;;;;;;6.43;5.83;;;;;;;13.81;100.00;100743.38;5051207;28;20224;-81
2023/05/23 08:20:41;;;;;;;6.60;6.00;;;;;;;13.79;100.00;100739.13;5050624;28;20735;-81
2023/05/23 08:23:08;;;;;;;6.77;6.17;;;;;;;13.74;100.00;100746.66;5048442;28;20225;-81
2023/05/23 08:25:35;;;;;;;7.57;6.53;;;;;;;13.69;100.00;100754.16;5046065;28;20212;-81
2023/05/23 08:28:01;;;;;;;7.10;6.40;;;;;;;13.70;100.00;100759.41;5053049;28;20224;-81
2023/05/23 08:30:28;;;;;;;7.43;6.73;;;;;;;13.71;100.00;100766.47;5047032;28;20194;-81
2023/05/23 08:32:56;;;;;;;9.17;8.27;;;;;;;13.70;100.00;100759.41;5048332;28;20252;-81
2023/05/23 08:35:23;;;;;;;8.63;7.73;;;;;;;13.68;100.00;100753.31;5044139;28;20259;-81
2023/05/23 08:37:51;;;;;;;9.80;7.47;;;;;;;13.65;100.00;100761.56;5052441;28;20225;-82
2023/05/23 08:40:19;;;;;;;8.67;7.80;;;;;;;13.66;100.00;100768.63;5056646;28;20669;-81
2023/05/23 08:42:46;;;;;;;7.63;6.70;;;;;;;13.66;100.00;100762.41;5054961;28;20633;-81
2023/05/23 08:45:13;;;;;;;8.20;7.40;;;;;;;13.65;100.00;100777.59;5049360;28;20571;-82
2023/05/23 08:47:43;;;;;;;8.37;7.57;;;;;;;13.64;100.00;100791.09;5050286;28;20225;-82
2023/05/23 08:50:12;;;;;;;9.73;7.90;;;;;;;13.60;100.00;100785.16;5047157;28;20214;-81
2023/05/23 08:52:44;;;;;;;10.80;8.43;;;;;;;13.54;100.00;100789.13;5055501;28;20205;-81
2023/05/23 08:55:13;;;;;;;11.63;8.70;;;;;;;13.47;100.00;100795.88;5050837;28;20290;-81
2023/05/23 08:57:42;;;;;;;11.67;8.57;;;;;;;13.41;100.00;100807.03;5049843;28;20237;-81
2023/05/23 09:00:13;;;;;;;11.13;8.90;;;;;;;13.36;100.00;100811.00;5053446;28;20300;-81
2023/05/23 09:02:40;;;;;;;10.33;8.47;;;;;;;13.30;100.00;100811.44;5043772;28;20217;-81
2023/05/23 09:05:08;;;;;;;10.93;8.73;;;;;;;13.30;100.00;100814.97;5048180;28;20210;-81
2023/05/23 09:07:35;;;;;;;10.90;9.23;;;;;;;13.26;100.00;100828.66;5048026;28;20805;-81
2023/05/23 09:10:02;;;;;;;10.20;7.63;;;;;;;13.24;100.00;100830.63;5046406;28;20205;-81
2023/05/23 09:12:32;;;;;;;11.30;7.63;;;;;;;13.21;100.00;100831.69;5050916;28;20216;-81
2023/05/23 09:14:58;;;;;;;11.50;7.30;;;;;;;13.17;100.00;100832.88;5053502;28;20213;-81
2023/05/23 09:17:25;;;;;;;7.87;6.20;;;;;;;13.14;100.00;100847.28;5050125;28;20591;-81
2023/05/23 09:19:52;;;;;;;7.97;6.27;;;;;;;13.12;100.00;100843.84;5054528;28;20210;-81
2023/05/23 09:22:24;;;;;;;7.80;5.57;;;;;;;13.09;100.00;100840.53;5046304;28;20212;-81
2023/05/23 09:24:50;;;;;;;8.07;5.40;;;;;;;13.04;100.00;100846.22;5044210;28;20300;-81
2023/05/23 09:27:17;;;;;;;6.80;5.10;;;;;;;13.01;100.00;100859.81;5046400;28;20232;-82
2023/05/23 09:29:46;;;;;;;8.13;5.33;;;;;;;12.99;100.00;100847.50;5055293;28;20788;-81
2023/05/23 09:32:13;;;;;;;6.80;4.33;;;;;;;12.95;100.00;100856.69;5055105;28;20232;-82
2023/05/23 09:34:55;;;;;;;6.30;3.83;;;;;;;12.92;100.00;100857.75;5056701;28;20221;-81
2023/05/23 09:37:23;;;;;;;6.77;4.87;;;;;;;12.84;100.00;100868.16;5051460;28;20764;-80
2023/05/23 09:39:50;;;;;;;6.23;4.20;;;;;;;12.81;100.00;100876.38;5049059;28;20738;-81
2023/05/23 09:42:21;;;;;;;10.93;5.13;;;;;;;12.74;100.00;100883.94;5046583;28;20201;-81
2023/05/23 09:44:49;;;;;;;11.47;5.37;;;;;;;12.73;100.00;100873.34;5050123;28;20284;-81
2023/05/23 09:47:16;;;;;;;7.57;4.73;;;;;;;12.67;100.00;100889.84;5052872;28;20328;-82
2023/05/23 09:49:43;;;;;;;10.23;5.13;;;;;;;12.61;100.00;100884.91;5054641;28;20210;-82
2023/05/23 09:52:10;;;;;;;8.37;4.13;;;;;;;12.54;100.00;100883.63;5055777;28;20206;-82
2023/05/23 09:54:36;;;;;;;8.40;4.57;;;;;;;12.46;100.00;100879.63;5052273;28;20236;-81
2023/05/23 09:57:05;;;;;;;7.47;4.30;;;;;;;12.47;100.00;100886.69;5053323;28;20231;-80
2023/05/23 09:59:34;;;;;;;6.47;4.37;;;;;;;12.48;100.00;100869.72;5050354;28;20201;-81
2023/05/23 10:02:06;;;;;;;8.73;4.80;;;;;;;12.47;100.00;100891.19;5051053;28;20213;-81
2023/05/23 10:04:34;;;;;;;7.53;4.50;;;;;;;12.44;100.00;100905.59;5051249;28;20229;-81
2023/05/23 10:07:07;;;;;;;7.47;4.77;;;;;;;12.42;100.00;100902.16;5053924;28;20249;-81
2023/05/23 10:09:37;;;;;;;9.00;5.30;;;;;;;12.43;100.00;100906.56;5052233;28;20197;-81
2023/05/23 10:12:42;;;;;;;8.07;5.63;;;;;;;12.41;100.00;100913.81;5044921;28;20658;-81
2023/05/23 10:15:09;;;;;;;7.23;4.53;;;;;;;12.38;100.00;100906.00;5055930;28;20226;-81
2023/05/23 10:17:51;;;;;;;6.73;5.03;;;;;;;12.34;100.00;100915.19;5051737;28;20251;-81
2023/05/23 10:20:20;;;;;;;8.27;5.13;;;;;;;12.29;100.00;100922.66;5052870;28;20193;-82
2023/05/23 10:22:48;;;;;;;8.27;4.97;;;;;;;12.30;100.00;100919.03;5050585;28;20206;-81
2023/05/23 10:25:15;;;;;;;7.17;5.07;;;;;;;12.29;100.00;100932.47;5044346;28;20600;-81
2023/05/23 10:27:43;;;;;;;6.17;4.40;;;;;;;12.26;100.00;100935.34;5052308;28;20227;-81
2023/05/23 10:30:10;;;;;;;6.63;4.67;;;;;;;12.27;100.00;100935.25;5052235;28;20223;-81
2023/05/23 10:32:39;;;;;;;6.17;3.67;;;;;;;12.28;100.00;100944.97;5051808;28;20221;-81
2023/05/23 10:35:15;;;;;;;4.10;3.57;;;;;;;12.26;100.00;100943.34;5051938;28;20221;-81
2023/05/23 10:37:48;;;;;;;4.90;3.83;;;;;;;12.26;100.00;100938.88;5052071;28;20221;-81
2023/05/23 10:40:24;;;;;;;4.73;3.50;;;;;;;12.27;100.00;100950.41;5053930;28;20197;-81
2023/05/23 10:42:57;;;;;;;5.37;3.70;;;;;;;12.29;100.00;100948.50;5054677;28;20201;-81
2023/05/23 10:45:24;;;;;;;5.57;3.13;;;;;;;12.28;100.00;100955.66;5053320;28;20197;-81
2023/05/23 10:47:53;;;;;;;6.80;3.87;;;;;;;12.27;100.00;100951.25;5052773;28;20237;-80
2023/05/23 10:50:34;;;;;;;5.83;4.20;;;;;;;12.23;100.00;100957.75;5052770;28;20581;-80
2023/05/23 10:53:03;;;;;;;11.33;6.40;;;;;;;12.22;100.00;100947.16;5053883;28;20215;-80
2023/05/23 10:55:32;;;;;;;9.10;5.50;;;;;;;12.19;100.00;100958.91;5051761;28;20219;-81
2023/05/23 10:58:15;;;;;;;11.40;6.87;;;;;;;12.19;100.00;100961.56;5051301;28;20219;-81
2023/05/23 11:00:51;;;;;;;10.93;6.70;;;;;;;12.16;100.00;100965.31;5051319;28;20209;-81
2023/05/23 11:03:30;;;;;;;11.27;6.50;;;;;;;12.14;100.00;100967.25;5052537;28;20228;-81
2023/05/23 11:05:57;;;;;;;15.73;7.90;;;;;;;12.16;100.00;100976.00;5052508;28;20255;-81
2023/05/23 11:08:24;;;;;;;9.37;6.50;;;;;;;12.19;100.00;100985.59;5051380;28;20246;-81
2023/05/23 11:10:55;;;;;;;12.43;7.30;;;;;;;12.19;100.00;100990.94;5056514;28;20207;-81
2023/05/23 11:13:22;;;;;;;10.67;6.07;;;;;;;12.18;100.00;100992.75;5052012;28;20219;-81